• Join FlightAware (Why Join?)
  • Login
  • US Flag 
04:11AM EST


 

Airport Tracker/Info


-or-


 

Live Flight TrackerFlight Track Log ✈ UAL4550 ✈ 29-Apr-2013 ✈ KIAH - KMLU

Flight Track Log - Related Links

Times and Time Zones

All times are in EDT time to prevent confusion due to time zone crossing. See the UAL4550 flight status page for this flight to view local times or setup timezone preferences in your user account.

Time Position Orientation Groundspeed Altitude Reporting Facility
EDT Latitude Longitude Course Direction KTS MPH feet Rate Location/Type
08:20PM 30.6456 -94.8103 32° Northeast  Level FlightAware Approximate
08:21PM 30.7299 -94.7461 34° Northeast  Level FlightAware Approximate
08:22PM 30.8130 -94.6796 34° Northeast  Level FlightAware Approximate
08:23PM 30.8965 -94.6139 34° Northeast  Level FlightAware Approximate
08:24PM 30.9804 -94.5486 34° Northeast  Level FlightAware Approximate
08:25PM 31.0650 -94.4846 33° Northeast  Level FlightAware Approximate
08:26PM 31.1483 -94.4184 41° Northeast  Level FlightAware Approximate
08:27PM 31.2307 -94.3527 41° Northeast  Level FlightAware Approximate
08:28PM 31.3131 -94.2857 30° Northeast  Level FlightAware Approximate
08:29PM 31.3965 -94.2194 34° Northeast  Level FlightAware Approximate
08:30PM 31.4811 -94.1551 34° Northeast  Level FlightAware Approximate
08:31PM 31.5644 -94.0885 34° Northeast  Level FlightAware Approximate
08:32PM 31.6481 -94.0223 33° Northeast  Level FlightAware Approximate
08:33PM 31.7331 -93.9586 33° Northeast  Level FlightAware Approximate
08:34PM 31.7976 -93.8715 60° Northeast  Level FlightAware Approximate
08:35PM 31.8354 -93.7616 65° Northeast  Level FlightAware Approximate
08:36PM 31.8778 -93.6539 66° East  Level FlightAware Approximate
08:37PM 31.9185 -93.5453 66° East  Level FlightAware Approximate
08:38PM 31.9592 -93.4366 66° East  Level FlightAware Approximate
08:39PM 32.0019 -93.3289 65° Northeast  Level FlightAware Approximate
08:40PM 32.0450 -93.2214 65° Northeast  Level FlightAware Approximate
08:41PM 32.0880 -93.1137 65° Northeast  Level FlightAware Approximate
08:42PM 32.1309 -93.0060 65° Northeast  Level FlightAware Approximate
08:43PM 32.1763 -92.8997 63° Northeast  Level FlightAware Approximate
08:44PM 32.2124 -92.7919 59° Northeast  Level FlightAware Approximate
08:45PM 32.2605 -92.6873 67° East  Level FlightAware Approximate
08:46PM 32.2998 -92.5775 67° East  Level FlightAware Approximate
08:47PM 32.3391 -92.4676 67° East  Level FlightAware Approximate
08:48PM 32.3790 -92.3580 67° East  Level FlightAware Approximate
08:49PM 32.4175 -92.2476 68° East  Level FlightAware Approximate
08:50PM 32.4580 -92.1383 65° Northeast  Level FlightAware Approximate
08:51PM 32.5000 -92.0333 65° Northeast  Level FlightAware Approximate
08:52PM 32.5109 -92.0377 65° Northeast  Level Estimated
08:53PM 32.5109 -92.0377 65° Northeast  Level Estimated
08:54PM 32.5109 -92.0377 65° Northeast  Level Estimated
08:55PM 32.5109 -92.0377 65° Northeast  Level Estimated